createdAt,value
2023-04-13T00:02:16.902Z,99885.69
2023-04-13T00:12:40.954Z,99866.31
2023-04-13T00:23:02.872Z,99851.97
2023-04-13T00:33:24.271Z,99846.13
2023-04-13T00:43:45.869Z,99815.19
2023-04-13T00:54:07.314Z,99823.06
2023-04-13T01:04:30.527Z,99798.19
2023-04-13T01:14:58.972Z,99777.06
2023-04-13T01:25:21.496Z,99776.31
2023-04-13T01:35:44.674Z,99762.78
2023-04-13T01:46:06.443Z,99758.72
2023-04-13T01:56:28.565Z,99758.66
2023-04-13T02:06:51.557Z,99763.97
2023-04-13T02:17:12.921Z,99745.97
2023-04-13T02:27:38.814Z,99752.41
2023-04-13T02:38:00.220Z,99751.53
2023-04-13T02:48:21.859Z,99741.25
2023-04-13T02:58:44.671Z,99745.41
2023-04-13T03:09:06.036Z,99745.13
2023-04-13T03:19:28.601Z,99737.25
2023-04-13T03:29:50.028Z,99722.59
2023-04-13T03:40:11.609Z,99714.13
2023-04-13T03:50:33.018Z,99708.97
2023-04-13T04:00:54.357Z,99696.81
2023-04-13T04:11:16.712Z,99692.44
2023-04-13T04:21:38.059Z,99696.47
2023-04-13T04:32:03.316Z,99698.91
2023-04-13T04:42:24.815Z,99698.78
2023-04-13T04:52:46.170Z,99699.28
2023-04-13T05:03:08.264Z,99704.25
2023-04-13T05:13:29.758Z,99705.78
2023-04-13T05:23:51.121Z,99719.25
2023-04-13T05:34:12.879Z,99723.28
2023-04-13T05:44:34.231Z,99725.66
2023-04-13T05:54:56.094Z,99746.03
2023-04-13T06:05:18.321Z,99781.81
2023-04-13T06:15:40.252Z,99782.97
2023-04-13T06:26:03.756Z,99808.31
2023-04-13T06:36:26.584Z,99818.13
2023-04-13T06:46:48.034Z,99833.94
2023-04-13T06:57:09.475Z,99855.38
2023-04-13T07:07:30.912Z,99862.97
2023-04-13T07:17:52.472Z,99882.06
2023-04-13T07:28:14.048Z,99888.28
2023-04-13T07:38:35.445Z,99902.41
2023-04-13T07:48:56.924Z,99909.91
2023-04-13T07:59:18.292Z,99919.41
2023-04-13T08:09:40.329Z,99934.25
2023-04-13T08:20:01.819Z,99953.03
2023-04-13T08:30:23.234Z,99960.44
2023-04-13T08:40:44.800Z,99979.81
2023-04-13T08:51:07.375Z,99999.75
2023-04-13T09:01:31.344Z,100024.69
2023-04-13T09:11:53.044Z,100019.06
2023-04-13T09:22:15.197Z,100037.94
2023-04-13T09:32:39.106Z,100036.09
2023-04-13T09:43:01.394Z,100050.19
2023-04-13T09:53:22.761Z,100093.34
2023-04-13T10:03:44.413Z,100102.53
2023-04-13T10:14:09.297Z,100108.69
2023-04-13T10:24:30.813Z,100107.78
2023-04-13T10:34:53.152Z,100100.34
2023-04-13T10:45:35.966Z,100106.81
2023-04-13T10:55:57.857Z,100120.63
2023-04-13T11:06:19.606Z,100152.84
2023-04-13T11:16:45.066Z,100187.50
2023-04-13T11:27:16.231Z,100199.31
2023-04-13T11:37:41.983Z,100231.28
2023-04-13T11:48:06.153Z,100253.69
2023-04-13T11:58:28.277Z,100258.66
2023-04-13T12:08:57.728Z,100257.03
2023-04-13T12:19:27.222Z,100264.00
2023-04-13T12:29:49.364Z,100281.97
2023-04-13T12:40:12.638Z,100294.88
2023-04-13T12:50:34.446Z,100310.97
2023-04-13T13:00:55.941Z,100328.09
2023-04-13T13:11:17.563Z,100350.63
2023-04-13T13:21:38.913Z,100328.09
2023-04-13T13:32:00.424Z,100338.25
2023-04-13T13:42:21.880Z,100356.81
2023-04-13T13:52:55.218Z,100403.94
2023-04-13T14:03:21.766Z,100414.84
2023-04-13T14:13:43.248Z,100432.94
2023-04-13T14:24:04.927Z,100426.06
2023-04-13T14:34:26.382Z,100452.09
2023-04-13T14:44:48.140Z,100450.41
2023-04-13T14:55:10.007Z,100457.66
2023-04-13T15:05:35.571Z,100470.31
2023-04-13T15:15:57.260Z,100485.91
2023-04-13T15:26:19.454Z,100502.41
2023-04-13T15:36:40.893Z,100526.56
2023-04-13T15:47:03.192Z,100542.41
2023-04-13T15:57:24.706Z,100557.75
2023-04-13T16:07:46.305Z,100574.63
2023-04-13T16:18:08.027Z,100573.84
2023-04-13T16:28:29.757Z,100586.47
2023-04-13T16:38:53.018Z,100609.16
2023-04-13T16:49:14.394Z,100637.59
2023-04-13T16:59:35.966Z,100647.13
2023-04-13T17:09:57.437Z,100659.69
2023-04-13T17:20:18.889Z,100687.72
2023-04-13T17:30:40.343Z,100706.72
2023-04-13T17:41:01.880Z,100709.00
2023-04-13T17:51:23.305Z,100728.09
2023-04-13T18:01:45.157Z,100762.97
2023-04-13T18:12:06.767Z,100774.13
2023-04-13T18:22:28.243Z,100797.41
2023-04-13T18:32:51.433Z,100813.28
2023-04-13T18:43:12.946Z,100841.75
2023-04-13T18:53:34.349Z,100858.94
2023-04-13T19:03:55.867Z,100874.34
2023-04-13T19:14:17.582Z,100872.59
2023-04-13T19:24:39.054Z,100881.66
2023-04-13T19:35:00.445Z,100881.34
2023-04-13T19:45:21.816Z,100902.34
2023-04-13T19:55:43.261Z,100903.59
2023-04-13T20:06:04.684Z,100916.06
2023-04-13T20:16:27.130Z,100930.91
2023-04-13T20:26:48.589Z,100943.22
2023-04-13T20:37:10.233Z,100959.84
2023-04-13T20:47:31.691Z,100956.59
2023-04-13T20:57:53.202Z,100969.91
2023-04-13T21:08:14.910Z,100984.69
2023-04-13T21:18:36.892Z,100987.50
2023-04-13T21:28:58.555Z,100999.03
2023-04-13T21:39:20.584Z,101000.94
2023-04-13T21:49:43.177Z,100998.66
2023-04-13T22:00:06.556Z,100984.97
2023-04-13T22:10:28.288Z,100981.75
2023-04-13T22:20:49.797Z,100979.44
2023-04-13T22:31:12.033Z,100996.00
2023-04-13T22:41:34.026Z,100995.28
2023-04-13T22:51:56.235Z,101009.88
2023-04-13T23:02:17.765Z,101006.59
2023-04-13T23:12:39.941Z,101032.47
2023-04-13T23:23:01.723Z,101044.50
2023-04-13T23:33:23.134Z,101048.91
2023-04-13T23:43:44.505Z,101031.84
2023-04-13T23:54:06.127Z,101043.91
